createdAt,value
2022-12-08T00:01:12.318Z,23.30
2022-12-08T00:04:14.150Z,26.13
2022-12-08T00:07:34.188Z,26.60
2022-12-08T00:10:51.085Z,26.60
2022-12-08T00:13:52.603Z,25.35
2022-12-08T00:16:54.988Z,22.83
2022-12-08T00:19:56.607Z,24.05
2022-12-08T00:22:58.107Z,24.67
2022-12-08T00:26:06.934Z,25.23
2022-12-08T00:29:13.082Z,25.70
2022-12-08T00:32:17.472Z,24.83
2022-12-08T00:35:19.037Z,29.08
2022-12-08T00:38:20.558Z,24.20
2022-12-08T00:41:43.850Z,28.65
2022-12-08T00:44:46.127Z,24.30
2022-12-08T00:47:47.626Z,23.30
2022-12-08T00:50:49.150Z,24.17
2022-12-08T00:53:50.713Z,22.08
2022-12-08T00:56:52.438Z,25.03
2022-12-08T00:59:53.933Z,24.13
2022-12-08T01:02:55.485Z,23.23
2022-12-08T01:05:57.137Z,22.52
2022-12-08T01:08:58.907Z,25.85
2022-12-08T01:12:00.475Z,24.38
2022-12-08T01:15:02.686Z,21.73
2022-12-08T01:18:04.577Z,24.40
2022-12-08T01:21:07.591Z,24.23
2022-12-08T01:24:20.871Z,25.42
2022-12-08T01:27:22.420Z,22.60
2022-12-08T01:30:23.936Z,24.88
2022-12-08T01:33:25.897Z,21.30
2022-12-08T01:36:29.945Z,25.23
2022-12-08T01:39:31.456Z,19.85
2022-12-08T01:42:34.493Z,24.17
2022-12-08T01:45:36.065Z,22.33
2022-12-08T01:48:37.771Z,21.77
2022-12-08T01:51:47.388Z,25.05
2022-12-08T01:54:53.692Z,24.58
2022-12-08T01:58:05.962Z,24.07
2022-12-08T02:01:08.105Z,25.42
2022-12-08T02:04:10.241Z,23.10
2022-12-08T02:07:13.593Z,23.00
2022-12-08T02:10:19.455Z,22.33
2022-12-08T02:13:22.425Z,25.95
2022-12-08T02:16:37.323Z,23.85
2022-12-08T02:20:22.930Z,25.93
2022-12-08T02:23:37.198Z,23.70
2022-12-08T02:26:53.812Z,23.58
2022-12-08T02:30:16.228Z,22.10
2022-12-08T02:33:26.580Z,24.80
2022-12-08T02:36:58.682Z,25.90
2022-12-08T02:40:14.277Z,24.20
2022-12-08T02:43:26.942Z,23.83
2022-12-08T02:46:33.807Z,24.10
2022-12-08T02:49:35.632Z,24.40
2022-12-08T02:52:48.296Z,19.50
2022-12-08T02:56:16.149Z,21.63
2022-12-08T02:59:48.086Z,24.45
2022-12-08T03:03:15.365Z,23.10
2022-12-08T03:06:29.582Z,23.15
2022-12-08T03:09:36.434Z,23.83
2022-12-08T03:12:43.636Z,27.10
2022-12-08T03:15:49.081Z,20.38
2022-12-08T03:19:24.583Z,24.23
2022-12-08T03:22:27.676Z,23.60
2022-12-08T03:25:33.856Z,24.27
2022-12-08T03:28:35.589Z,24.35
2022-12-08T03:31:41.776Z,21.50
2022-12-08T03:34:47.071Z,23.40
2022-12-08T03:37:48.800Z,24.52
2022-12-08T03:41:10.680Z,26.15
2022-12-08T03:44:12.213Z,24.25
2022-12-08T03:47:13.803Z,24.52
2022-12-08T03:50:15.435Z,25.35
2022-12-08T03:54:21.059Z,23.58
2022-12-08T03:57:22.657Z,22.77
2022-12-08T04:00:24.199Z,23.65
2022-12-08T04:03:25.915Z,23.10
2022-12-08T04:06:27.483Z,25.20
2022-12-08T04:09:29.055Z,25.27
2022-12-08T04:12:31.289Z,24.73
2022-12-08T04:15:32.855Z,22.67
2022-12-08T04:18:35.480Z,22.42
2022-12-08T04:21:37.007Z,23.70
2022-12-08T04:24:38.521Z,23.23
2022-12-08T04:27:40.051Z,25.73
2022-12-08T04:30:41.711Z,22.65
2022-12-08T04:33:43.285Z,27.25
2022-12-08T04:36:44.810Z,25.40
2022-12-08T04:39:46.295Z,23.08
2022-12-08T04:42:48.061Z,22.23
2022-12-08T04:45:49.663Z,24.45
2022-12-08T04:48:51.176Z,25.42
2022-12-08T04:51:52.692Z,26.42
2022-12-08T04:54:54.223Z,23.17
2022-12-08T04:57:56.116Z,28.47
2022-12-08T05:00:57.708Z,25.48
2022-12-08T05:03:59.279Z,23.90
2022-12-08T05:07:00.862Z,24.70
2022-12-08T05:10:03.205Z,24.25
2022-12-08T05:13:05.202Z,24.83
2022-12-08T05:16:13.416Z,24.50
2022-12-08T05:19:15.804Z,26.27
2022-12-08T05:22:17.396Z,27.48
2022-12-08T05:25:18.962Z,27.02
2022-12-08T05:28:40.760Z,23.17
2022-12-08T05:31:42.156Z,22.58
2022-12-08T05:34:43.684Z,23.58
2022-12-08T05:37:45.196Z,23.53
2022-12-08T05:40:46.785Z,23.75
2022-12-08T05:43:48.950Z,24.30
2022-12-08T05:46:50.629Z,22.90
2022-12-08T05:49:52.186Z,23.95
2022-12-08T05:52:53.764Z,23.02
2022-12-08T05:55:55.432Z,23.77
2022-12-08T05:58:57.015Z,21.63
2022-12-08T06:01:58.774Z,25.40
2022-12-08T06:05:00.400Z,25.55
2022-12-08T06:08:02.048Z,24.33
2022-12-08T06:11:03.672Z,27.85
2022-12-08T06:14:05.396Z,23.75
2022-12-08T06:17:07.282Z,24.15
2022-12-08T06:20:09.528Z,25.75
2022-12-08T06:23:11.064Z,22.23
2022-12-08T06:26:15.042Z,23.30
2022-12-08T06:29:16.591Z,20.60
2022-12-08T06:32:20.795Z,20.20
2022-12-08T06:35:25.996Z,24.15
2022-12-08T06:38:28.110Z,26.23
2022-12-08T06:41:29.726Z,23.33
2022-12-08T06:44:31.239Z,24.67
2022-12-08T06:47:32.765Z,25.88
2022-12-08T06:50:35.027Z,27.10
2022-12-08T06:53:36.951Z,29.38
2022-12-08T06:56:38.497Z,29.17
2022-12-08T06:59:40.054Z,28.10
2022-12-08T07:02:42.281Z,28.33
2022-12-08T07:05:43.860Z,27.67
2022-12-08T07:08:45.409Z,27.37
2022-12-08T07:11:46.947Z,26.85
2022-12-08T07:14:48.448Z,23.00
2022-12-08T07:17:53.567Z,25.45
2022-12-08T07:21:03.509Z,30.33
2022-12-08T07:24:05.473Z,29.25
2022-12-08T07:27:07.102Z,26.70
2022-12-08T07:30:09.023Z,26.20
2022-12-08T07:33:10.551Z,29.00
2022-12-08T07:36:12.621Z,29.35
2022-12-08T07:39:14.143Z,29.40
2022-12-08T07:42:15.798Z,28.90
2022-12-08T07:45:21.288Z,31.20
2022-12-08T07:48:22.812Z,31.95
2022-12-08T07:51:25.195Z,28.10
2022-12-08T07:54:27.713Z,32.42
2022-12-08T07:57:29.264Z,28.15
2022-12-08T08:00:30.877Z,30.57
2022-12-08T08:03:33.182Z,31.58
2022-12-08T08:06:36.296Z,29.48
2022-12-08T08:09:38.017Z,31.50
2022-12-08T08:12:39.656Z,28.48
2022-12-08T08:15:41.372Z,29.13
2022-12-08T08:18:43.570Z,29.90
2022-12-08T08:21:46.342Z,28.63
2022-12-08T08:24:48.252Z,31.85
2022-12-08T08:27:50.303Z,28.63
2022-12-08T08:30:52.054Z,25.53
2022-12-08T08:33:54.013Z,30.95
2022-12-08T08:36:55.598Z,27.33
2022-12-08T08:39:57.174Z,29.60
2022-12-08T08:43:01.458Z,31.58
2022-12-08T08:46:04.590Z,31.27
2022-12-08T08:49:06.165Z,30.80
2022-12-08T08:52:07.944Z,29.65
2022-12-08T08:55:09.857Z,27.80
2022-12-08T08:58:11.459Z,28.65
2022-12-08T09:01:21.370Z,29.47
2022-12-08T09:04:23.717Z,30.13
2022-12-08T09:07:25.289Z,29.70
2022-12-08T09:10:27.340Z,28.10
2022-12-08T09:13:28.895Z,31.38
2022-12-08T09:16:30.538Z,31.83
2022-12-08T09:19:32.659Z,39.28
2022-12-08T09:22:34.482Z,36.85
2022-12-08T09:25:36.012Z,35.75
2022-12-08T09:28:38.063Z,29.17
2022-12-08T09:31:39.993Z,27.83
2022-12-08T09:34:41.653Z,28.55
2022-12-08T09:37:43.180Z,28.08
2022-12-08T09:40:50.943Z,28.97
2022-12-08T09:44:18.880Z,28.67
2022-12-08T09:47:29.391Z,26.98
2022-12-08T09:50:55.776Z,28.92
2022-12-08T09:54:07.832Z,28.88
2022-12-08T09:57:17.488Z,30.00
2022-12-08T10:00:19.162Z,32.10
2022-12-08T10:03:24.314Z,30.73
2022-12-08T10:06:41.303Z,29.50
2022-12-08T10:09:49.960Z,29.48
2022-12-08T10:13:14.168Z,29.47
2022-12-08T10:16:29.312Z,29.73
2022-12-08T10:19:34.194Z,31.30
2022-12-08T10:22:39.947Z,34.45
2022-12-08T10:25:48.741Z,29.73
2022-12-08T10:28:50.684Z,30.67
2022-12-08T10:31:52.323Z,32.08
2022-12-08T10:35:02.007Z,34.37
2022-12-08T10:38:06.355Z,33.65
2022-12-08T10:41:11.043Z,34.60
2022-12-08T10:44:12.647Z,33.47
2022-12-08T10:47:14.526Z,29.17
2022-12-08T10:50:28.526Z,33.80
2022-12-08T10:53:32.826Z,31.20
2022-12-08T10:56:34.558Z,35.88
2022-12-08T10:59:36.260Z,33.67
2022-12-08T11:02:51.670Z,33.33
2022-12-08T11:05:57.088Z,28.83
2022-12-08T11:09:01.772Z,29.58
2022-12-08T11:12:17.661Z,32.05
2022-12-08T11:15:19.495Z,26.10
2022-12-08T11:18:28.585Z,27.70
2022-12-08T11:21:36.774Z,26.52
2022-12-08T11:24:38.289Z,27.73
2022-12-08T11:27:47.178Z,26.90
2022-12-08T11:30:57.618Z,29.70
2022-12-08T11:33:59.433Z,27.52
2022-12-08T11:37:03.760Z,26.63
2022-12-08T11:40:14.445Z,24.20
2022-12-08T11:43:17.821Z,26.20
2022-12-08T11:46:24.933Z,26.63
2022-12-08T11:49:39.436Z,30.75
2022-12-08T11:52:47.448Z,23.35
2022-12-08T11:55:59.082Z,25.05
2022-12-08T11:59:15.725Z,23.63
2022-12-08T12:02:24.040Z,25.27
2022-12-08T12:06:09.300Z,28.77
2022-12-08T12:09:18.785Z,22.37
2022-12-08T12:12:39.290Z,22.55
2022-12-08T12:15:53.347Z,24.42
2022-12-08T12:19:01.424Z,23.33
2022-12-08T12:22:20.132Z,18.58
2022-12-08T12:25:24.724Z,21.40
2022-12-08T12:28:30.886Z,20.67
2022-12-08T12:31:38.356Z,21.20
2022-12-08T12:34:54.538Z,18.92
2022-12-08T12:38:00.042Z,23.20
2022-12-08T12:41:04.179Z,22.13
2022-12-08T12:44:13.209Z,22.67
2022-12-08T12:47:48.559Z,24.08
2022-12-08T12:50:55.061Z,24.03
2022-12-08T12:54:23.407Z,25.73
2022-12-08T12:57:40.256Z,19.63
2022-12-08T13:00:41.947Z,21.92
2022-12-08T13:03:47.277Z,24.25
2022-12-08T13:06:50.444Z,21.50
2022-12-08T13:10:15.339Z,27.77
2022-12-08T13:13:18.937Z,22.77
2022-12-08T13:16:24.281Z,26.08
2022-12-08T13:19:26.353Z,23.00
2022-12-08T13:22:54.207Z,23.67
2022-12-08T13:26:23.532Z,20.75
2022-12-08T13:29:26.278Z,22.02
2022-12-08T13:33:16.701Z,22.67
2022-12-08T13:36:25.807Z,22.50
2022-12-08T13:39:44.775Z,20.38
2022-12-08T13:43:05.848Z,23.80
2022-12-08T13:46:57.998Z,20.00
2022-12-08T13:57:02.716Z,21.60
2022-12-08T13:59:51.648Z,22.60
2022-12-08T14:02:58.054Z,22.60
2022-12-08T14:06:12.262Z,22.85
2022-12-08T14:09:19.274Z,23.20
2022-12-08T14:12:27.741Z,22.08
2022-12-08T14:15:37.224Z,21.90
2022-12-08T14:18:39.564Z,21.23
2022-12-08T14:21:41.121Z,20.98
2022-12-08T14:24:51.573Z,25.60
2022-12-08T14:27:59.974Z,21.47
2022-12-08T14:31:03.652Z,24.83
2022-12-08T14:34:05.236Z,25.25
2022-12-08T14:37:12.617Z,25.98
2022-12-08T14:40:34.172Z,24.85
2022-12-08T14:43:36.406Z,29.55
2022-12-08T14:46:38.357Z,37.05
2022-12-08T14:49:40.374Z,29.57
2022-12-08T14:52:45.376Z,30.73
2022-12-08T14:55:48.706Z,24.70
2022-12-08T14:59:03.289Z,24.73
2022-12-08T15:02:19.431Z,26.88
2022-12-08T15:05:21.911Z,25.48
2022-12-08T15:08:24.059Z,26.05
2022-12-08T15:11:34.560Z,26.15
2022-12-08T15:14:40.460Z,23.55
2022-12-08T15:17:43.457Z,28.83
2022-12-08T15:21:01.886Z,26.63
2022-12-08T15:24:03.649Z,26.95
2022-12-08T15:27:05.241Z,22.80
2022-12-08T15:30:14.306Z,26.77
2022-12-08T15:33:15.956Z,26.00
2022-12-08T15:36:17.500Z,24.85
2022-12-08T15:39:35.587Z,31.15
2022-12-08T15:42:37.137Z,29.20
2022-12-08T15:45:44.760Z,28.15
2022-12-08T15:48:57.891Z,26.10
2022-12-08T15:52:10.774Z,42.87
2022-12-08T15:55:18.818Z,38.55
2022-12-08T16:01:45.324Z,37.23
2022-12-08T16:05:33.421Z,35.28
2022-12-08T16:08:44.659Z,33.97
2022-12-08T16:12:06.489Z,28.30
2022-12-08T16:18:37.007Z,28.85
2022-12-08T16:22:17.729Z,29.33
2022-12-08T16:25:14.701Z,27.87
2022-12-08T16:28:52.009Z,29.35
2022-12-08T16:31:41.225Z,29.83
2022-12-08T16:34:43.911Z,32.40
2022-12-08T16:37:45.574Z,33.55
2022-12-08T16:41:06.342Z,33.03
2022-12-08T16:44:07.917Z,29.05
2022-12-08T16:47:10.254Z,31.75
2022-12-08T16:50:32.356Z,37.60
2022-12-08T16:53:33.857Z,51.30
2022-12-08T16:56:35.782Z,56.97
2022-12-08T16:59:38.123Z,47.60
2022-12-08T17:02:39.912Z,48.88
2022-12-08T17:05:43.258Z,52.00
2022-12-08T17:08:45.216Z,51.85
2022-12-08T17:11:46.776Z,45.80
2022-12-08T17:14:48.327Z,38.33
2022-12-08T17:17:50.436Z,35.35
2022-12-08T17:20:52.001Z,39.20
2022-12-08T17:23:53.768Z,39.95
2022-12-08T17:26:57.555Z,39.50
2022-12-08T17:29:59.311Z,34.50
2022-12-08T17:33:01.312Z,38.20
2022-12-08T17:36:03.062Z,34.10
2022-12-08T17:39:06.149Z,32.50
2022-12-08T17:42:08.099Z,30.95
2022-12-08T17:45:10.255Z,34.42
2022-12-08T17:48:12.037Z,30.35
2022-12-08T17:51:13.650Z,29.80
2022-12-08T17:54:16.482Z,29.38
2022-12-08T17:57:18.017Z,30.37
2022-12-08T18:00:20.271Z,36.28
2022-12-08T18:03:21.948Z,34.20
2022-12-08T18:06:28.169Z,31.87
2022-12-08T18:09:33.685Z,36.33
2022-12-08T18:12:35.416Z,33.38
2022-12-08T18:15:39.333Z,34.78
2022-12-08T18:18:41.509Z,40.47
2022-12-08T18:21:43.195Z,37.10
2022-12-08T18:24:44.897Z,43.20
2022-12-08T18:27:46.690Z,58.03
2022-12-08T18:30:48.245Z,65.80
2022-12-08T18:33:51.183Z,51.40
2022-12-08T18:36:53.599Z,45.23
2022-12-08T18:39:55.199Z,40.65
2022-12-08T18:42:56.850Z,40.75
2022-12-08T18:46:10.131Z,42.05
2022-12-08T18:49:12.915Z,41.90
2022-12-08T18:52:14.496Z,39.00
2022-12-08T18:55:16.073Z,33.83
2022-12-08T18:58:18.598Z,35.90
2022-12-08T19:01:20.622Z,35.08
2022-12-08T19:04:29.886Z,32.22
2022-12-08T19:07:32.277Z,31.07
2022-12-08T19:10:38.181Z,29.75
2022-12-08T19:13:39.697Z,34.53
2022-12-08T19:16:41.287Z,29.42
2022-12-08T19:19:43.183Z,31.80
2022-12-08T19:22:44.823Z,35.50
2022-12-08T19:25:46.436Z,33.08
2022-12-08T19:28:48.100Z,34.40
2022-12-08T19:31:49.842Z,33.47
2022-12-08T19:35:07.811Z,37.08
2022-12-08T19:38:17.998Z,33.83
2022-12-08T19:45:17.218Z,31.20
2022-12-08T19:48:18.780Z,32.45
2022-12-08T19:51:20.405Z,29.23
2022-12-08T19:54:21.994Z,34.35
2022-12-08T19:57:23.541Z,30.63
2022-12-08T20:00:25.536Z,31.27
2022-12-08T20:03:27.114Z,33.47
2022-12-08T20:06:28.780Z,33.00
2022-12-08T20:09:30.333Z,32.70
2022-12-08T20:12:31.933Z,33.45
2022-12-08T20:15:33.560Z,31.70
2022-12-08T20:18:39.871Z,32.17
2022-12-08T20:21:41.632Z,34.28
2022-12-08T20:24:43.250Z,32.72
2022-12-08T20:27:44.824Z,33.95
2022-12-08T20:30:46.956Z,35.37
2022-12-08T20:33:48.914Z,34.42
2022-12-08T20:36:50.481Z,36.70
2022-12-08T20:39:52.645Z,32.73
2022-12-08T20:42:54.424Z,31.83
2022-12-08T20:45:56.303Z,34.72
2022-12-08T20:49:01.225Z,34.60
2022-12-08T20:52:39.592Z,27.42
2022-12-08T20:55:49.681Z,28.75
2022-12-08T21:05:51.110Z,34.17
2022-12-08T21:08:53.573Z,32.90
2022-12-08T21:11:55.553Z,34.50
2022-12-08T21:14:57.150Z,32.35
2022-12-08T21:17:59.141Z,27.77
2022-12-08T21:21:04.608Z,31.85
2022-12-08T21:24:06.909Z,28.63
2022-12-08T21:27:09.311Z,28.02
2022-12-08T21:30:11.821Z,30.58
2022-12-08T21:33:13.933Z,34.03
2022-12-08T21:36:18.746Z,32.80
2022-12-08T21:39:20.443Z,32.78
2022-12-08T21:42:40.632Z,29.10
2022-12-08T21:45:42.343Z,27.77
2022-12-08T21:48:44.000Z,29.15
2022-12-08T21:51:45.948Z,30.38
2022-12-08T21:54:47.693Z,28.60
2022-12-08T21:57:49.295Z,32.28
2022-12-08T22:00:51.005Z,33.28
2022-12-08T22:03:52.797Z,41.10
2022-12-08T22:06:54.502Z,44.28
2022-12-08T22:09:56.248Z,45.10
2022-12-08T22:12:57.875Z,42.07
2022-12-08T22:16:02.144Z,53.17
2022-12-08T22:19:03.852Z,45.95
2022-12-08T22:22:05.942Z,42.03
2022-12-08T22:25:11.875Z,38.67
2022-12-08T22:28:13.742Z,42.22
2022-12-08T22:31:19.499Z,36.50
2022-12-08T22:34:21.262Z,31.47
2022-12-08T22:37:22.893Z,31.88
2022-12-08T22:40:24.646Z,30.08
2022-12-08T22:43:26.532Z,31.97
2022-12-08T22:46:28.299Z,36.47
2022-12-08T22:49:31.677Z,35.95
2022-12-08T22:52:33.580Z,38.00
2022-12-08T22:55:35.339Z,33.17
2022-12-08T22:58:38.712Z,39.50
2022-12-08T23:01:40.294Z,37.05
2022-12-08T23:04:42.006Z,31.30
2022-12-08T23:07:44.009Z,36.38
2022-12-08T23:10:47.145Z,34.33
2022-12-08T23:13:49.032Z,33.20
2022-12-08T23:16:50.690Z,35.67
2022-12-08T23:19:52.337Z,34.75
2022-12-08T23:22:53.946Z,33.45
2022-12-08T23:25:55.627Z,31.80
2022-12-08T23:28:57.805Z,35.92
2022-12-08T23:32:00.030Z,31.95
2022-12-08T23:35:01.743Z,34.73
2022-12-08T23:38:03.768Z,34.03
2022-12-08T23:41:07.837Z,34.88
2022-12-08T23:44:11.920Z,31.23
2022-12-08T23:47:13.613Z,28.42
2022-12-08T23:50:15.427Z,26.05
2022-12-08T23:53:17.190Z,25.17
2022-12-08T23:56:19.894Z,26.75
2022-12-08T23:59:23.173Z,28.00
